sensor_id;sensor_type;location;lat;lon;timestamp;P1;durP1;ratioP1;P2;durP2;ratioP2
18612;SDS011;9436;52.152;21.032;2022-12-26T00:02:02;30.83;;;22.03;;
18612;SDS011;9436;52.152;21.032;2022-12-26T00:04:29;30.23;;;21.20;;
18612;SDS011;9436;52.152;21.032;2022-12-26T00:06:56;26.90;;;21.07;;
18612;SDS011;9436;52.152;21.032;2022-12-26T00:09:24;28.63;;;21.20;;
18612;SDS011;9436;52.152;21.032;2022-12-26T00:11:50;31.43;;;22.07;;
18612;SDS011;9436;52.152;21.032;2022-12-26T00:14:17;27.80;;;21.20;;
18612;SDS011;9436;52.152;21.032;2022-12-26T00:16:44;28.33;;;20.40;;
18612;SDS011;9436;52.152;21.032;2022-12-26T00:19:12;29.87;;;21.63;;
18612;SDS011;9436;52.152;21.032;2022-12-26T00:21:39;26.60;;;20.30;;
18612;SDS011;9436;52.152;21.032;2022-12-26T00:24:06;29.60;;;20.57;;
18612;SDS011;9436;52.152;21.032;2022-12-26T00:26:37;31.93;;;22.13;;
18612;SDS011;9436;52.152;21.032;2022-12-26T00:29:04;28.53;;;20.47;;
18612;SDS011;9436;52.152;21.032;2022-12-26T00:31:32;28.60;;;21.17;;
18612;SDS011;9436;52.152;21.032;2022-12-26T00:34:00;28.50;;;20.77;;
18612;SDS011;9436;52.152;21.032;2022-12-26T00:36:28;27.93;;;21.33;;
18612;SDS011;9436;52.152;21.032;2022-12-26T00:38:56;27.53;;;21.50;;
18612;SDS011;9436;52.152;21.032;2022-12-26T00:41:24;28.10;;;21.37;;
18612;SDS011;9436;52.152;21.032;2022-12-26T00:43:52;30.37;;;21.47;;
18612;SDS011;9436;52.152;21.032;2022-12-26T00:46:20;28.93;;;21.43;;
18612;SDS011;9436;52.152;21.032;2022-12-26T00:48:47;27.33;;;21.03;;
18612;SDS011;9436;52.152;21.032;2022-12-26T00:51:14;31.43;;;21.33;;
18612;SDS011;9436;52.152;21.032;2022-12-26T00:53:41;30.90;;;21.83;;
18612;SDS011;9436;52.152;21.032;2022-12-26T00:56:08;32.83;;;22.20;;
18612;SDS011;9436;52.152;21.032;2022-12-26T00:58:35;26.87;;;21.23;;
18612;SDS011;9436;52.152;21.032;2022-12-26T01:01:06;25.70;;;21.13;;
18612;SDS011;9436;52.152;21.032;2022-12-26T01:03:35;30.00;;;21.63;;
18612;SDS011;9436;52.152;21.032;2022-12-26T01:06:02;30.20;;;21.17;;
18612;SDS011;9436;52.152;21.032;2022-12-26T01:08:30;31.23;;;21.53;;
18612;SDS011;9436;52.152;21.032;2022-12-26T01:10:57;32.07;;;22.17;;
18612;SDS011;9436;52.152;21.032;2022-12-26T01:13:28;34.03;;;22.73;;
18612;SDS011;9436;52.152;21.032;2022-12-26T01:15:54;27.63;;;21.70;;
18612;SDS011;9436;52.152;21.032;2022-12-26T01:18:22;29.70;;;22.17;;
18612;SDS011;9436;52.152;21.032;2022-12-26T01:20:49;28.73;;;20.67;;
18612;SDS011;9436;52.152;21.032;2022-12-26T01:23:16;28.20;;;20.50;;
18612;SDS011;9436;52.152;21.032;2022-12-26T01:25:43;30.50;;;20.80;;
18612;SDS011;9436;52.152;21.032;2022-12-26T01:28:10;28.43;;;20.53;;
18612;SDS011;9436;52.152;21.032;2022-12-26T01:30:37;33.00;;;22.20;;
18612;SDS011;9436;52.152;21.032;2022-12-26T01:33:04;29.80;;;21.40;;
18612;SDS011;9436;52.152;21.032;2022-12-26T01:35:32;28.83;;;20.43;;
18612;SDS011;9436;52.152;21.032;2022-12-26T01:37:59;30.30;;;21.20;;
18612;SDS011;9436;52.152;21.032;2022-12-26T01:40:25;28.63;;;20.53;;
18612;SDS011;9436;52.152;21.032;2022-12-26T01:42:53;28.97;;;21.23;;
18612;SDS011;9436;52.152;21.032;2022-12-26T01:45:21;29.37;;;21.30;;
18612;SDS011;9436;52.152;21.032;2022-12-26T01:47:52;29.93;;;20.40;;
18612;SDS011;9436;52.152;21.032;2022-12-26T01:50:25;30.17;;;21.43;;
18612;SDS011;9436;52.152;21.032;2022-12-26T01:53:00;31.17;;;21.93;;
18612;SDS011;9436;52.152;21.032;2022-12-26T01:55:31;28.87;;;21.23;;
18612;SDS011;9436;52.152;21.032;2022-12-26T01:58:00;32.63;;;21.47;;
18612;SDS011;9436;52.152;21.032;2022-12-26T02:00:29;30.27;;;22.50;;
18612;SDS011;9436;52.152;21.032;2022-12-26T02:02:57;31.50;;;22.57;;
18612;SDS011;9436;52.152;21.032;2022-12-26T02:05:26;35.20;;;23.27;;
18612;SDS011;9436;52.152;21.032;2022-12-26T02:07:56;33.50;;;23.47;;
18612;SDS011;9436;52.152;21.032;2022-12-26T02:10:25;30.53;;;23.07;;
18612;SDS011;9436;52.152;21.032;2022-12-26T02:12:53;33.00;;;23.53;;
18612;SDS011;9436;52.152;21.032;2022-12-26T02:15:20;37.07;;;24.90;;
18612;SDS011;9436;52.152;21.032;2022-12-26T02:17:47;33.70;;;23.93;;
18612;SDS011;9436;52.152;21.032;2022-12-26T02:20:16;34.13;;;24.53;;
18612;SDS011;9436;52.152;21.032;2022-12-26T02:22:51;35.37;;;24.73;;
18612;SDS011;9436;52.152;21.032;2022-12-26T02:25:44;34.10;;;23.47;;
18612;SDS011;9436;52.152;21.032;2022-12-26T02:28:37;32.23;;;23.40;;
18612;SDS011;9436;52.152;21.032;2022-12-26T02:31:17;32.53;;;23.33;;
18612;SDS011;9436;52.152;21.032;2022-12-26T02:33:54;32.73;;;23.53;;
18612;SDS011;9436;52.152;21.032;2022-12-26T02:36:34;32.73;;;24.20;;
18612;SDS011;9436;52.152;21.032;2022-12-26T02:39:16;35.37;;;23.97;;
18612;SDS011;9436;52.152;21.032;2022-12-26T02:41:55;31.90;;;23.13;;
18612;SDS011;9436;52.152;21.032;2022-12-26T02:44:31;32.87;;;24.07;;
18612;SDS011;9436;52.152;21.032;2022-12-26T02:47:09;34.90;;;24.80;;
18612;SDS011;9436;52.152;21.032;2022-12-26T02:49:44;33.90;;;24.60;;
18612;SDS011;9436;52.152;21.032;2022-12-26T02:52:24;35.07;;;25.73;;
18612;SDS011;9436;52.152;21.032;2022-12-26T02:55:03;36.77;;;25.13;;
18612;SDS011;9436;52.152;21.032;2022-12-26T02:57:50;33.50;;;24.00;;
18612;SDS011;9436;52.152;21.032;2022-12-26T03:00:26;33.03;;;23.80;;
18612;SDS011;9436;52.152;21.032;2022-12-26T03:02:57;33.70;;;24.43;;
18612;SDS011;9436;52.152;21.032;2022-12-26T03:05:30;29.93;;;22.67;;
18612;SDS011;9436;52.152;21.032;2022-12-26T03:08:03;33.27;;;23.77;;
18612;SDS011;9436;52.152;21.032;2022-12-26T03:10:33;33.43;;;23.83;;
18612;SDS011;9436;52.152;21.032;2022-12-26T03:13:05;37.27;;;25.50;;
18612;SDS011;9436;52.152;21.032;2022-12-26T03:15:36;31.33;;;23.83;;
18612;SDS011;9436;52.152;21.032;2022-12-26T03:18:09;29.93;;;22.50;;
18612;SDS011;9436;52.152;21.032;2022-12-26T03:20:36;32.37;;;23.40;;
18612;SDS011;9436;52.152;21.032;2022-12-26T03:23:05;29.43;;;21.43;;
18612;SDS011;9436;52.152;21.032;2022-12-26T03:25:35;28.30;;;22.00;;
18612;SDS011;9436;52.152;21.032;2022-12-26T03:28:07;30.67;;;21.63;;
18612;SDS011;9436;52.152;21.032;2022-12-26T03:30:34;30.17;;;21.67;;
18612;SDS011;9436;52.152;21.032;2022-12-26T03:33:03;30.13;;;21.17;;
18612;SDS011;9436;52.152;21.032;2022-12-26T03:35:52;26.47;;;19.60;;
18612;SDS011;9436;52.152;21.032;2022-12-26T03:38:18;27.03;;;20.17;;
18612;SDS011;9436;52.152;21.032;2022-12-26T03:40:50;26.37;;;18.47;;
18612;SDS011;9436;52.152;21.032;2022-12-26T03:43:25;22.67;;;17.27;;
18612;SDS011;9436;52.152;21.032;2022-12-26T03:46:17;24.37;;;18.17;;
18612;SDS011;9436;52.152;21.032;2022-12-26T03:48:53;23.70;;;18.47;;
18612;SDS011;9436;52.152;21.032;2022-12-26T03:51:28;23.00;;;17.53;;
18612;SDS011;9436;52.152;21.032;2022-12-26T03:54:03;23.03;;;17.47;;
18612;SDS011;9436;52.152;21.032;2022-12-26T03:56:37;22.53;;;16.80;;
18612;SDS011;9436;52.152;21.032;2022-12-26T03:59:10;21.97;;;16.57;;
18612;SDS011;9436;52.152;21.032;2022-12-26T04:01:42;21.70;;;16.27;;
18612;SDS011;9436;52.152;21.032;2022-12-26T04:04:14;22.67;;;17.33;;
18612;SDS011;9436;52.152;21.032;2022-12-26T04:06:50;21.83;;;17.03;;
18612;SDS011;9436;52.152;21.032;2022-12-26T04:09:23;22.23;;;17.27;;
18612;SDS011;9436;52.152;21.032;2022-12-26T04:11:57;22.00;;;16.57;;
18612;SDS011;9436;52.152;21.032;2022-12-26T04:14:32;23.27;;;17.47;;
18612;SDS011;9436;52.152;21.032;2022-12-26T04:17:09;21.70;;;16.23;;
18612;SDS011;9436;52.152;21.032;2022-12-26T04:19:48;20.67;;;16.27;;
18612;SDS011;9436;52.152;21.032;2022-12-26T04:22:25;23.13;;;16.97;;
18612;SDS011;9436;52.152;21.032;2022-12-26T04:25:04;20.83;;;16.67;;
18612;SDS011;9436;52.152;21.032;2022-12-26T04:27:36;21.33;;;16.27;;
18612;SDS011;9436;52.152;21.032;2022-12-26T04:30:05;21.20;;;16.57;;
18612;SDS011;9436;52.152;21.032;2022-12-26T04:32:36;23.47;;;17.50;;
18612;SDS011;9436;52.152;21.032;2022-12-26T04:35:11;20.43;;;16.60;;
18612;SDS011;9436;52.152;21.032;2022-12-26T04:37:46;23.27;;;17.53;;
18612;SDS011;9436;52.152;21.032;2022-12-26T04:40:18;20.17;;;16.87;;
18612;SDS011;9436;52.152;21.032;2022-12-26T04:42:50;23.77;;;18.53;;
18612;SDS011;9436;52.152;21.032;2022-12-26T04:45:20;20.67;;;17.23;;
18612;SDS011;9436;52.152;21.032;2022-12-26T04:47:48;22.57;;;18.17;;
18612;SDS011;9436;52.152;21.032;2022-12-26T04:50:18;22.10;;;17.73;;
18612;SDS011;9436;52.152;21.032;2022-12-26T04:52:44;21.40;;;16.67;;
18612;SDS011;9436;52.152;21.032;2022-12-26T04:55:14;21.60;;;17.23;;
18612;SDS011;9436;52.152;21.032;2022-12-26T04:57:42;24.40;;;17.47;;
18612;SDS011;9436;52.152;21.032;2022-12-26T05:00:09;21.00;;;17.37;;
18612;SDS011;9436;52.152;21.032;2022-12-26T05:02:36;20.10;;;15.83;;
18612;SDS011;9436;52.152;21.032;2022-12-26T05:05:05;19.20;;;15.87;;
18612;SDS011;9436;52.152;21.032;2022-12-26T05:07:36;19.97;;;15.13;;
18612;SDS011;9436;52.152;21.032;2022-12-26T05:10:07;19.63;;;15.63;;
18612;SDS011;9436;52.152;21.032;2022-12-26T05:12:40;20.23;;;15.73;;
18612;SDS011;9436;52.152;21.032;2022-12-26T05:15:07;18.40;;;15.57;;
18612;SDS011;9436;52.152;21.032;2022-12-26T05:17:34;17.60;;;14.50;;
18612;SDS011;9436;52.152;21.032;2022-12-26T05:20:03;18.57;;;15.03;;
18612;SDS011;9436;52.152;21.032;2022-12-26T05:22:33;17.07;;;13.97;;
18612;SDS011;9436;52.152;21.032;2022-12-26T05:25:08;17.93;;;14.30;;
18612;SDS011;9436;52.152;21.032;2022-12-26T05:27:42;15.40;;;13.67;;
18612;SDS011;9436;52.152;21.032;2022-12-26T05:30:11;16.90;;;14.03;;
18612;SDS011;9436;52.152;21.032;2022-12-26T05:32:38;15.87;;;13.30;;
18612;SDS011;9436;52.152;21.032;2022-12-26T05:35:07;16.60;;;14.03;;
18612;SDS011;9436;52.152;21.032;2022-12-26T05:37:34;16.03;;;12.90;;
18612;SDS011;9436;52.152;21.032;2022-12-26T05:40:01;16.57;;;13.10;;
18612;SDS011;9436;52.152;21.032;2022-12-26T05:42:30;13.43;;;12.03;;
18612;SDS011;9436;52.152;21.032;2022-12-26T05:44:56;15.40;;;12.20;;
18612;SDS011;9436;52.152;21.032;2022-12-26T05:47:23;13.77;;;11.93;;
18612;SDS011;9436;52.152;21.032;2022-12-26T05:49:50;13.90;;;11.90;;
18612;SDS011;9436;52.152;21.032;2022-12-26T05:52:17;15.13;;;12.57;;
18612;SDS011;9436;52.152;21.032;2022-12-26T05:54:43;13.20;;;11.53;;
18612;SDS011;9436;52.152;21.032;2022-12-26T05:57:10;13.93;;;12.10;;
18612;SDS011;9436;52.152;21.032;2022-12-26T05:59:38;13.70;;;11.37;;
18612;SDS011;9436;52.152;21.032;2022-12-26T06:02:05;12.33;;;10.50;;
18612;SDS011;9436;52.152;21.032;2022-12-26T06:04:32;13.03;;;11.07;;
18612;SDS011;9436;52.152;21.032;2022-12-26T06:07:00;12.40;;;10.53;;
18612;SDS011;9436;52.152;21.032;2022-12-26T06:09:27;10.73;;;9.60;;
18612;SDS011;9436;52.152;21.032;2022-12-26T06:11:54;12.27;;;10.20;;
18612;SDS011;9436;52.152;21.032;2022-12-26T06:14:21;10.80;;;9.70;;
18612;SDS011;9436;52.152;21.032;2022-12-26T06:16:49;11.80;;;10.20;;
18612;SDS011;9436;52.152;21.032;2022-12-26T06:19:16;10.10;;;9.07;;
18612;SDS011;9436;52.152;21.032;2022-12-26T06:21:42;11.53;;;9.70;;
18612;SDS011;9436;52.152;21.032;2022-12-26T06:24:09;11.63;;;9.60;;
18612;SDS011;9436;52.152;21.032;2022-12-26T06:26:38;10.73;;;9.63;;
18612;SDS011;9436;52.152;21.032;2022-12-26T06:29:05;10.30;;;9.30;;
18612;SDS011;9436;52.152;21.032;2022-12-26T06:31:31;10.90;;;9.17;;
18612;SDS011;9436;52.152;21.032;2022-12-26T06:33:59;10.30;;;8.90;;
18612;SDS011;9436;52.152;21.032;2022-12-26T06:36:27;10.07;;;8.97;;
18612;SDS011;9436;52.152;21.032;2022-12-26T06:38:54;9.57;;;8.57;;
18612;SDS011;9436;52.152;21.032;2022-12-26T06:41:22;9.90;;;8.90;;
18612;SDS011;9436;52.152;21.032;2022-12-26T06:43:50;10.20;;;9.13;;
18612;SDS011;9436;52.152;21.032;2022-12-26T06:46:17;10.67;;;9.20;;
18612;SDS011;9436;52.152;21.032;2022-12-26T06:48:45;10.83;;;9.67;;
18612;SDS011;9436;52.152;21.032;2022-12-26T06:51:14;11.60;;;9.10;;
18612;SDS011;9436;52.152;21.032;2022-12-26T06:53:43;11.87;;;10.37;;
18612;SDS011;9436;52.152;21.032;2022-12-26T06:56:10;11.70;;;10.30;;
18612;SDS011;9436;52.152;21.032;2022-12-26T06:58:38;11.93;;;10.60;;
18612;SDS011;9436;52.152;21.032;2022-12-26T07:01:05;12.37;;;10.73;;
18612;SDS011;9436;52.152;21.032;2022-12-26T07:03:33;12.07;;;9.93;;
18612;SDS011;9436;52.152;21.032;2022-12-26T07:06:01;11.70;;;10.50;;
18612;SDS011;9436;52.152;21.032;2022-12-26T07:08:30;12.53;;;10.40;;
18612;SDS011;9436;52.152;21.032;2022-12-26T07:10:58;12.73;;;11.27;;
18612;SDS011;9436;52.152;21.032;2022-12-26T07:13:25;12.17;;;10.20;;
18612;SDS011;9436;52.152;21.032;2022-12-26T07:15:52;10.73;;;9.60;;
18612;SDS011;9436;52.152;21.032;2022-12-26T07:18:18;10.70;;;9.60;;
18612;SDS011;9436;52.152;21.032;2022-12-26T07:20:45;10.83;;;9.73;;
18612;SDS011;9436;52.152;21.032;2022-12-26T07:23:12;12.03;;;9.80;;
18612;SDS011;9436;52.152;21.032;2022-12-26T07:25:41;10.73;;;9.53;;
18612;SDS011;9436;52.152;21.032;2022-12-26T07:28:08;10.27;;;9.17;;
18612;SDS011;9436;52.152;21.032;2022-12-26T07:30:35;11.20;;;9.67;;
18612;SDS011;9436;52.152;21.032;2022-12-26T07:33:01;11.60;;;10.03;;
18612;SDS011;9436;52.152;21.032;2022-12-26T07:35:28;11.13;;;9.93;;
18612;SDS011;9436;52.152;21.032;2022-12-26T07:37:55;11.33;;;10.13;;
18612;SDS011;9436;52.152;21.032;2022-12-26T07:40:22;12.63;;;10.27;;
18612;SDS011;9436;52.152;21.032;2022-12-26T07:42:52;11.53;;;10.20;;
18612;SDS011;9436;52.152;21.032;2022-12-26T07:45:19;11.97;;;10.27;;
18612;SDS011;9436;52.152;21.032;2022-12-26T07:47:46;12.33;;;10.30;;
18612;SDS011;9436;52.152;21.032;2022-12-26T07:50:13;11.10;;;9.97;;
18612;SDS011;9436;52.152;21.032;2022-12-26T07:52:40;13.17;;;10.10;;
18612;SDS011;9436;52.152;21.032;2022-12-26T07:55:07;12.70;;;10.63;;
18612;SDS011;9436;52.152;21.032;2022-12-26T07:57:34;11.27;;;10.13;;
18612;SDS011;9436;52.152;21.032;2022-12-26T08:00:02;11.37;;;10.20;;
18612;SDS011;9436;52.152;21.032;2022-12-26T08:02:30;11.53;;;10.33;;
18612;SDS011;9436;52.152;21.032;2022-12-26T08:04:57;12.17;;;10.27;;
18612;SDS011;9436;52.152;21.032;2022-12-26T08:07:24;11.23;;;10.10;;
18612;SDS011;9436;52.152;21.032;2022-12-26T08:09:51;11.60;;;10.27;;
18612;SDS011;9436;52.152;21.032;2022-12-26T08:12:17;11.57;;;9.93;;
18612;SDS011;9436;52.152;21.032;2022-12-26T08:14:45;11.30;;;9.93;;
18612;SDS011;9436;52.152;21.032;2022-12-26T08:17:14;12.90;;;10.47;;
18612;SDS011;9436;52.152;21.032;2022-12-26T08:19:41;13.23;;;10.23;;
18612;SDS011;9436;52.152;21.032;2022-12-26T08:22:08;12.27;;;10.97;;
18612;SDS011;9436;52.152;21.032;2022-12-26T08:24:35;13.20;;;10.70;;
18612;SDS011;9436;52.152;21.032;2022-12-26T08:27:02;11.90;;;9.83;;
18612;SDS011;9436;52.152;21.032;2022-12-26T08:29:29;11.67;;;9.97;;
18612;SDS011;9436;52.152;21.032;2022-12-26T08:31:56;12.70;;;10.50;;
18612;SDS011;9436;52.152;21.032;2022-12-26T08:34:24;14.20;;;10.77;;
18612;SDS011;9436;52.152;21.032;2022-12-26T08:36:56;12.43;;;10.33;;
18612;SDS011;9436;52.152;21.032;2022-12-26T08:39:23;14.73;;;11.03;;
18612;SDS011;9436;52.152;21.032;2022-12-26T08:41:49;11.80;;;10.30;;
18612;SDS011;9436;52.152;21.032;2022-12-26T08:44:16;13.87;;;10.57;;
18612;SDS011;9436;52.152;21.032;2022-12-26T08:46:43;13.33;;;11.03;;
18612;SDS011;9436;52.152;21.032;2022-12-26T08:49:11;13.40;;;10.13;;
18612;SDS011;9436;52.152;21.032;2022-12-26T08:51:39;11.97;;;10.33;;
18612;SDS011;9436;52.152;21.032;2022-12-26T08:54:06;13.90;;;10.73;;
18612;SDS011;9436;52.152;21.032;2022-12-26T08:56:33;13.30;;;10.67;;
18612;SDS011;9436;52.152;21.032;2022-12-26T08:58:59;13.03;;;11.07;;
18612;SDS011;9436;52.152;21.032;2022-12-26T09:01:27;13.53;;;11.27;;
18612;SDS011;9436;52.152;21.032;2022-12-26T09:03:56;13.63;;;10.90;;
18612;SDS011;9436;52.152;21.032;2022-12-26T09:06:24;13.80;;;11.53;;
18612;SDS011;9436;52.152;21.032;2022-12-26T09:08:52;13.23;;;11.70;;
18612;SDS011;9436;52.152;21.032;2022-12-26T09:11:20;14.50;;;11.33;;
18612;SDS011;9436;52.152;21.032;2022-12-26T09:13:50;14.53;;;11.23;;
18612;SDS011;9436;52.152;21.032;2022-12-26T09:16:18;14.37;;;11.30;;
18612;SDS011;9436;52.152;21.032;2022-12-26T09:18:47;13.47;;;11.67;;
18612;SDS011;9436;52.152;21.032;2022-12-26T09:21:17;15.13;;;12.00;;
18612;SDS011;9436;52.152;21.032;2022-12-26T09:23:44;14.20;;;12.00;;
18612;SDS011;9436;52.152;21.032;2022-12-26T09:26:14;13.47;;;11.57;;
18612;SDS011;9436;52.152;21.032;2022-12-26T09:28:42;13.70;;;11.63;;
18612;SDS011;9436;52.152;21.032;2022-12-26T09:31:11;14.57;;;12.40;;
18612;SDS011;9436;52.152;21.032;2022-12-26T09:33:40;14.03;;;11.60;;
18612;SDS011;9436;52.152;21.032;2022-12-26T09:36:08;13.57;;;11.13;;
18612;SDS011;9436;52.152;21.032;2022-12-26T09:38:37;12.93;;;11.57;;
18612;SDS011;9436;52.152;21.032;2022-12-26T09:41:08;15.77;;;12.70;;
18612;SDS011;9436;52.152;21.032;2022-12-26T09:43:59;14.30;;;11.60;;
18612;SDS011;9436;52.152;21.032;2022-12-26T09:46:32;14.27;;;12.57;;
18612;SDS011;9436;52.152;21.032;2022-12-26T09:49:09;15.37;;;11.90;;
18612;SDS011;9436;52.152;21.032;2022-12-26T09:51:42;15.03;;;12.20;;
18612;SDS011;9436;52.152;21.032;2022-12-26T09:54:14;14.53;;;12.17;;
18612;SDS011;9436;52.152;21.032;2022-12-26T09:56:48;16.83;;;12.53;;
18612;SDS011;9436;52.152;21.032;2022-12-26T09:59:16;16.70;;;13.77;;
18612;SDS011;9436;52.152;21.032;2022-12-26T10:01:45;14.63;;;12.90;;
18612;SDS011;9436;52.152;21.032;2022-12-26T10:04:15;15.97;;;14.00;;
18612;SDS011;9436;52.152;21.032;2022-12-26T10:06:48;16.93;;;13.30;;
18612;SDS011;9436;52.152;21.032;2022-12-26T10:12:20;17.20;;;13.47;;
18612;SDS011;9436;52.152;21.032;2022-12-26T10:14:58;15.63;;;13.03;;
18612;SDS011;9436;52.152;21.032;2022-12-26T10:17:33;18.03;;;14.23;;
18612;SDS011;9436;52.152;21.032;2022-12-26T10:22:47;20.03;;;13.93;;
18612;SDS011;9436;52.152;21.032;2022-12-26T10:25:35;17.33;;;13.87;;
18612;SDS011;9436;52.152;21.032;2022-12-26T10:28:12;16.27;;;13.53;;
18612;SDS011;9436;52.152;21.032;2022-12-26T10:30:43;17.53;;;14.70;;
18612;SDS011;9436;52.152;21.032;2022-12-26T10:33:12;16.77;;;14.70;;
18612;SDS011;9436;52.152;21.032;2022-12-26T10:35:43;19.53;;;14.57;;
18612;SDS011;9436;52.152;21.032;2022-12-26T10:38:12;17.70;;;14.40;;
18612;SDS011;9436;52.152;21.032;2022-12-26T10:40:45;17.40;;;15.07;;
18612;SDS011;9436;52.152;21.032;2022-12-26T10:43:20;18.60;;;14.40;;
18612;SDS011;9436;52.152;21.032;2022-12-26T10:45:57;17.23;;;14.67;;
18612;SDS011;9436;52.152;21.032;2022-12-26T10:48:41;17.17;;;15.10;;
18612;SDS011;9436;52.152;21.032;2022-12-26T10:51:09;17.37;;;14.43;;
18612;SDS011;9436;52.152;21.032;2022-12-26T10:53:38;19.70;;;15.20;;
18612;SDS011;9436;52.152;21.032;2022-12-26T10:56:07;17.17;;;14.17;;
18612;SDS011;9436;52.152;21.032;2022-12-26T10:58:35;18.80;;;14.23;;
18612;SDS011;9436;52.152;21.032;2022-12-26T11:04:00;19.50;;;14.93;;
18612;SDS011;9436;52.152;21.032;2022-12-26T11:06:30;17.60;;;15.27;;
18612;SDS011;9436;52.152;21.032;2022-12-26T11:08:58;20.27;;;15.23;;
18612;SDS011;9436;52.152;21.032;2022-12-26T11:11:26;20.03;;;15.23;;
18612;SDS011;9436;52.152;21.032;2022-12-26T11:14:22;18.43;;;15.37;;
18612;SDS011;9436;52.152;21.032;2022-12-26T11:16:54;18.03;;;14.73;;
18612;SDS011;9436;52.152;21.032;2022-12-26T11:19:25;19.63;;;15.53;;
18612;SDS011;9436;52.152;21.032;2022-12-26T11:21:52;19.43;;;16.40;;
18612;SDS011;9436;52.152;21.032;2022-12-26T11:24:19;19.90;;;16.23;;
18612;SDS011;9436;52.152;21.032;2022-12-26T11:26:46;20.83;;;16.53;;
18612;SDS011;9436;52.152;21.032;2022-12-26T11:29:14;17.87;;;15.93;;
18612;SDS011;9436;52.152;21.032;2022-12-26T11:31:55;17.57;;;14.93;;
18612;SDS011;9436;52.152;21.032;2022-12-26T11:34:25;20.60;;;16.30;;
18612;SDS011;9436;52.152;21.032;2022-12-26T11:36:56;21.90;;;17.23;;
18612;SDS011;9436;52.152;21.032;2022-12-26T11:39:24;19.37;;;16.73;;
18612;SDS011;9436;52.152;21.032;2022-12-26T11:41:53;19.93;;;16.43;;
18612;SDS011;9436;52.152;21.032;2022-12-26T11:44:22;20.47;;;17.17;;
18612;SDS011;9436;52.152;21.032;2022-12-26T11:46:55;16.90;;;14.33;;
18612;SDS011;9436;52.152;21.032;2022-12-26T11:49:26;16.33;;;12.77;;
18612;SDS011;9436;52.152;21.032;2022-12-26T11:51:56;16.77;;;12.73;;
18612;SDS011;9436;52.152;21.032;2022-12-26T11:54:26;15.63;;;11.80;;
18612;SDS011;9436;52.152;21.032;2022-12-26T11:59:40;14.40;;;11.60;;
18612;SDS011;9436;52.152;21.032;2022-12-26T12:02:13;11.67;;;10.37;;
18612;SDS011;9436;52.152;21.032;2022-12-26T12:04:44;12.23;;;10.90;;
18612;SDS011;9436;52.152;21.032;2022-12-26T12:07:14;12.93;;;10.37;;
18612;SDS011;9436;52.152;21.032;2022-12-26T12:09:50;12.93;;;10.50;;
18612;SDS011;9436;52.152;21.032;2022-12-26T12:12:24;12.73;;;10.43;;
18612;SDS011;9436;52.152;21.032;2022-12-26T12:14:57;14.27;;;10.97;;
18612;SDS011;9436;52.152;21.032;2022-12-26T12:17:29;15.10;;;10.60;;
18612;SDS011;9436;52.152;21.032;2022-12-26T12:20:07;12.43;;;11.00;;
18612;SDS011;9436;52.152;21.032;2022-12-26T12:22:50;14.00;;;11.07;;
18612;SDS011;9436;52.152;21.032;2022-12-26T12:25:44;12.27;;;10.43;;
18612;SDS011;9436;52.152;21.032;2022-12-26T12:28:29;11.87;;;10.67;;
18612;SDS011;9436;52.152;21.032;2022-12-26T12:31:11;13.07;;;10.53;;
18612;SDS011;9436;52.152;21.032;2022-12-26T12:33:49;13.60;;;10.57;;
18612;SDS011;9436;52.152;21.032;2022-12-26T12:36:21;12.80;;;10.50;;
18612;SDS011;9436;52.152;21.032;2022-12-26T12:38:58;13.83;;;11.17;;
18612;SDS011;9436;52.152;21.032;2022-12-26T12:41:33;13.07;;;10.63;;
18612;SDS011;9436;52.152;21.032;2022-12-26T12:44:20;14.20;;;11.20;;
18612;SDS011;9436;52.152;21.032;2022-12-26T12:46:53;13.53;;;11.33;;
18612;SDS011;9436;52.152;21.032;2022-12-26T12:49:37;14.53;;;11.10;;
18612;SDS011;9436;52.152;21.032;2022-12-26T12:52:14;13.70;;;11.27;;
18612;SDS011;9436;52.152;21.032;2022-12-26T12:57:29;13.40;;;11.53;;
18612;SDS011;9436;52.152;21.032;2022-12-26T13:00:10;14.03;;;11.00;;
18612;SDS011;9436;52.152;21.032;2022-12-26T13:02:41;15.30;;;11.30;;
18612;SDS011;9436;52.152;21.032;2022-12-26T13:05:15;12.93;;;11.07;;
18612;SDS011;9436;52.152;21.032;2022-12-26T13:07:48;12.80;;;10.80;;
18612;SDS011;9436;52.152;21.032;2022-12-26T13:10:20;13.13;;;11.73;;
18612;SDS011;9436;52.152;21.032;2022-12-26T13:12:50;13.00;;;11.23;;
18612;SDS011;9436;52.152;21.032;2022-12-26T13:18:06;13.47;;;11.27;;
18612;SDS011;9436;52.152;21.032;2022-12-26T13:20:39;13.47;;;11.40;;
18612;SDS011;9436;52.152;21.032;2022-12-26T13:23:10;13.37;;;11.73;;
18612;SDS011;9436;52.152;21.032;2022-12-26T13:25:45;13.63;;;11.53;;
18612;SDS011;9436;52.152;21.032;2022-12-26T13:28:14;13.33;;;10.73;;
18612;SDS011;9436;52.152;21.032;2022-12-26T13:30:50;12.80;;;11.03;;
18612;SDS011;9436;52.152;21.032;2022-12-26T13:33:18;15.40;;;11.23;;
18612;SDS011;9436;52.152;21.032;2022-12-26T13:35:48;11.77;;;10.43;;
18612;SDS011;9436;52.152;21.032;2022-12-26T13:38:18;12.93;;;10.53;;
18612;SDS011;9436;52.152;21.032;2022-12-26T13:40:45;12.77;;;11.00;;
18612;SDS011;9436;52.152;21.032;2022-12-26T13:43:16;12.47;;;10.47;;
18612;SDS011;9436;52.152;21.032;2022-12-26T13:45:48;11.60;;;10.20;;
18612;SDS011;9436;52.152;21.032;2022-12-26T13:50:53;11.07;;;9.40;;
18612;SDS011;9436;52.152;21.032;2022-12-26T13:53:26;11.17;;;9.10;;
18612;SDS011;9436;52.152;21.032;2022-12-26T13:55:57;10.53;;;9.23;;
18612;SDS011;9436;52.152;21.032;2022-12-26T13:58:28;9.60;;;8.60;;
18612;SDS011;9436;52.152;21.032;2022-12-26T14:01:04;10.50;;;8.87;;
18612;SDS011;9436;52.152;21.032;2022-12-26T14:03:45;10.83;;;8.70;;
18612;SDS011;9436;52.152;21.032;2022-12-26T14:09:04;10.10;;;8.97;;
18612;SDS011;9436;52.152;21.032;2022-12-26T14:11:50;10.43;;;9.20;;
18612;SDS011;9436;52.152;21.032;2022-12-26T14:14:27;10.37;;;8.80;;
18612;SDS011;9436;52.152;21.032;2022-12-26T14:17:08;10.47;;;8.90;;
18612;SDS011;9436;52.152;21.032;2022-12-26T14:19:44;10.13;;;9.03;;
18612;SDS011;9436;52.152;21.032;2022-12-26T14:22:20;10.73;;;8.50;;
18612;SDS011;9436;52.152;21.032;2022-12-26T14:24:59;11.17;;;8.57;;
18612;SDS011;9436;52.152;21.032;2022-12-26T14:27:34;10.87;;;8.20;;
18612;SDS011;9436;52.152;21.032;2022-12-26T14:30:17;11.13;;;8.97;;
18612;SDS011;9436;52.152;21.032;2022-12-26T14:32:51;10.10;;;8.67;;
18612;SDS011;9436;52.152;21.032;2022-12-26T14:35:30;12.33;;;9.67;;
18612;SDS011;9436;52.152;21.032;2022-12-26T14:38:04;11.20;;;9.40;;
18612;SDS011;9436;52.152;21.032;2022-12-26T14:40:57;11.00;;;9.63;;
18612;SDS011;9436;52.152;21.032;2022-12-26T14:45:58;12.83;;;10.03;;
18612;SDS011;9436;52.152;21.032;2022-12-26T14:53:43;12.73;;;11.43;;
18612;SDS011;9436;52.152;21.032;2022-12-26T15:01:46;15.77;;;12.50;;
18612;SDS011;9436;52.152;21.032;2022-12-26T15:06:59;17.77;;;13.77;;
18612;SDS011;9436;52.152;21.032;2022-12-26T15:09:47;15.93;;;13.90;;
18612;SDS011;9436;52.152;21.032;2022-12-26T15:15:33;17.37;;;14.40;;
18612;SDS011;9436;52.152;21.032;2022-12-26T15:18:17;17.37;;;14.17;;
18612;SDS011;9436;52.152;21.032;2022-12-26T15:21:16;16.97;;;14.17;;
18612;SDS011;9436;52.152;21.032;2022-12-26T15:24:02;20.17;;;16.47;;
18612;SDS011;9436;52.152;21.032;2022-12-26T15:26:40;19.27;;;16.27;;
18612;SDS011;9436;52.152;21.032;2022-12-26T15:31:55;18.53;;;15.63;;